|

Lezuhant egy An-72-es Kazahsztánban – Frissítve!

A tegnap este folyamán lezuhant egy Antonov An-72-100 típusú teherszállító repülőgép Kazahsztánban, fedélzetén 27 emberrel. A balesetben mindenki életét vesztette, köztük a Kazah Határőrség országos parancsnoka is.

A balesetre december 25-én, helyi idő szerint 18 óra 55 perckor került sor az ország déli részén. A felsőszárnyas, kéthajtóműves masina a Kazah Határőrség légiflottájához tartozott, és rossz időjárási viszonyok között repült Astana repülőteréről Simkent városába, amikor 20 kilométerre úticéljától lezuhant.

An-72_crash

A gép fedélzetén 27-en tartózkodtak (hétfőnyi személyzet és 20 utas), köztük Turganbek Sztambekov ezredes, a Kazah Határőrség parancsnoka.

A balesetről nem közöltek további információkat, az okok kiderítésére vizsgálatot rendeltek el.

An-72_kazakh

Az aktuális METAR adatok a baleset időpontja környékén:
UAII 251330Z 29006G11MPS 0900 R28/P2000 +SN OVC004 M06/M06 Q1018 28491040 TEMPO 0500 SN FZFG VV002 RMK QBB130 QFE726/0968
UAII 251300Z 29005MPS 0800 R28/2000 +SN BKN004 OVC010 M03/M03 Q1016 28391040 TEMPO 0500 SN FZFG VV002 RMK QBB120 QFE725/0967
UAII 251230Z 30004MPS 5000 -SN BR OVC004 M02/M02 Q1016 282///45 TEMPO 1000 RASN BR OVC003 RMK QBB120 QFE725/0967

Frissítés

A 20 fős utaslistán a határőrség szinte teljes vezérkara megtalálható. Bővebb információk a lenti kommentben.

3 hozzászólás “Lezuhant egy An-72-es Kazahsztánban – Frissítve!”

  1. A kazah határőrség szinte teljes vezetését elveszítette a repülőgép-katasztrófában

    Moszkva, 2012. december 26., szerda (MTI) – A kazah határőrség gyakorlatilag teljes vezetését elveszítette a keddi, 27 halálos áldozattal járó repülőgép-katasztrófában – jelentette a Rosszija 24 orosz hírtelevízió szerdán.

    A Kazahsztán déli körzetében lévő Simkent város közelében lezuhant Antonov-72-es kazah katonai szállító repülőgép fedélzetén tartózkodott Turganbek Sztambekov ezredes, a határőrség megbízott parancsnoka és a fegyveres testület több magas rangú vezetője.
    Nurlan Szagimbajev, a testület szóvivője megerősítette, hogy a simkenti repülőtértől 20 kilométerre bekövetkezett katasztrófában meghalt az ukrán gyártmányú repülőgép hétfős személyzete és húsz utasa. A kazah határőrség küldöttségének tagjai Simkenten keresztül üzbegisztáni tárgyalásokra utaztak volna tovább.
    Turganbek Sztambekov ezredest júniusban nevezték ki a határőrség élére. Elődjét egy május végén történt súlyos gyilkossági ügy miatt menesztették. A vizsgálat szerint a Kínával szomszédos határszakaszon lévő kazah poszton az egyik határőr ölte meg 14 társát és egy vadászt. A férfit életfogytiglani szabadságvesztésre ítélték.
    A Rosszija 24 orosz hírtelevízió tudósítása szerint az An-72-es katasztrófája idején alacsonyan volt a felhőzet, havas eső esett a térségben, és a látótávolság minimális volt. Szemtanúk elmondták, hogy a lezuhanás előtt a gép nagyon alacsonyan repült.
    A katasztrófa a Tasszaj nevű kistelepülés mellett történt. A túlélésre senkinek sem volt esélye. Egy másik szemtanú elmondása szerint a lezuhanást követően repülőgép kigyulladt, és négy darabra tört. A földön mindenütt holttestek hevertek. A katasztrófát a katonai rendőrség vizsgálja. A hatóságok nem sokkal a tragédiát követően büntetőeljárást indítottak.
    A Rosszija 24 televízióban megkérdezett szakemberek megbízhatónak tartják az ukrán An-72-es repülőgépeket. Ezt a típust a hetvenes években fejlesztették ki a kijevi Antonov tervezőközpontban és üzemben. A rövid távolságra készült, fegyverzetek és katonai egységek szállítására alkalmas gép különösen azokban az országokban használható jól, ahol rosszul felszerelt repülőterek működnek. Afganisztánban, Afrika számos országában és Dél-Amerikában ezért népszerűek az Antonov-72-esek.
    A volt szovjet köztársaságokban gyakoriak a repülő- és helikopterbalesetek. Kazahsztánban november 29-én egy orosz gyártmányú, Mi-8 típusú helikopter zuhant le. A szerencsétlenségben nyolcan meghaltak.

Fórum hozzászólások

There are no comments in the forum topic that is associated with this post.